Time;durP1;ratioP1;P1;durP2;ratioP2;P2;SDS_P1;SDS_P2;PMS_P1;PMS_P2;Temp;Humidity;BMP_temperature;BMP_pressure;BME280_temperature;BME280_humidity;BME280_pressure;Samples;Min_cycle;Max_cycle;Signal;HPM_P1;HPM_P2
2022/05/23 00:02:13;;;;;;;2.10;1.60;;;;;;;16.80;100.00;98077.78;5069033;28;20032;-82
2022/05/23 00:04:39;;;;;;;2.97;2.17;;;;;;;16.74;100.00;98060.28;5068871;28;20033;-81
2022/05/23 00:07:15;;;;;;;2.13;1.70;;;;;;;16.72;100.00;98070.34;5068956;28;20409;-81
2022/05/23 00:09:41;;;;;;;2.08;1.70;;;;;;;16.67;100.00;98066.59;5067591;28;20070;-80
2022/05/23 00:12:09;;;;;;;3.00;2.08;;;;;;;16.87;100.00;98059.00;5070196;28;20051;-81
2022/05/23 00:14:35;;;;;;;2.88;2.00;;;;;;;17.05;100.00;98055.91;5068598;28;20032;-81
2022/05/23 00:17:01;;;;;;;2.33;2.00;;;;;;;16.75;100.00;98046.75;5071883;28;20390;-81
2022/05/23 00:19:26;;;;;;;4.90;2.42;;;;;;;16.90;100.00;98051.34;5073424;28;20107;-82
2022/05/23 00:21:52;;;;;;;4.07;2.15;;;;;;;16.89;100.00;98056.88;5072356;28;20099;-82
2022/05/23 00:24:20;;;;;;;4.80;1.88;;;;;;;16.99;100.00;98056.94;5073283;28;20596;-82
2022/05/23 00:26:49;;;;;;;3.08;2.15;;;;;;;16.89;100.00;98047.06;5072106;28;20043;-82
2022/05/23 00:29:15;;;;;;;2.05;1.70;;;;;;;16.93;100.00;98045.50;5071184;28;20036;-82
2022/05/23 00:35:17;;;;;;;2.38;1.85;;;;;;;17.00;100.00;98047.94;5072299;28;20589;-83
2022/05/23 00:37:13;;;;;;;3.03;1.98;;;;;;;16.81;100.00;98050.22;5051839;28;20052;-83
2022/05/23 00:39:39;;;;;;;3.00;2.13;;;;;;;16.84;100.00;98037.25;5073288;28;20032;-82
2022/05/23 00:44:55;;;;;;;2.28;1.75;;;;;;;16.81;100.00;98034.31;5070880;28;20032;-83
2022/05/23 00:47:24;;;;;;;3.25;2.08;;;;;;;16.77;100.00;98034.03;5071174;28;20115;-82
2022/05/23 00:49:50;;;;;;;4.78;2.40;;;;;;;16.56;100.00;98022.59;5054685;28;20036;-81
2022/05/23 00:52:23;;;;;;;3.28;2.00;;;;;;;16.67;100.00;98013.59;5072854;28;20025;-82
2022/05/23 00:54:54;;;;;;;2.38;1.92;;;;;;;16.75;100.00;98024.78;5070718;28;20040;-83
2022/05/23 00:57:27;;;;;;;4.63;2.63;;;;;;;16.77;100.00;98006.75;5072789;28;20478;-83
2022/05/23 00:59:53;;;;;;;6.27;2.23;;;;;;;16.73;100.00;98011.00;5071026;28;20110;-82
2022/05/23 01:02:21;;;;;;;2.28;2.00;;;;;;;16.84;100.00;98005.47;5072910;28;20261;-81
2022/05/23 01:04:49;;;;;;;4.72;2.17;;;;;;;16.87;100.00;98006.00;5072450;28;20193;-81
2022/05/23 01:07:15;;;;;;;3.88;2.00;;;;;;;16.76;100.00;98002.53;5071636;28;20040;-81
2022/05/23 01:09:42;;;;;;;3.35;2.33;;;;;;;16.50;100.00;97997.94;5071781;28;20033;-82
2022/05/23 01:12:08;;;;;;;4.45;2.25;;;;;;;16.55;100.00;97997.16;5071106;28;20123;-81
2022/05/23 01:14:49;;;;;;;4.38;2.00;;;;;;;16.51;100.00;97998.75;5070964;28;20025;-82
2022/05/23 01:17:15;;;;;;;4.32;1.70;;;;;;;16.51;100.00;97999.50;5071443;28;20390;-81
2022/05/23 01:19:41;;;;;;;2.45;1.80;;;;;;;16.62;100.00;97999.56;5072694;28;20036;-82
2022/05/23 01:22:33;;;;;;;3.67;2.00;;;;;;;16.63;100.00;98001.94;5071029;28;20028;-82
2022/05/23 01:25:13;;;;;;;2.83;2.08;;;;;;;16.49;100.00;97996.34;5064588;28;20086;-82
2022/05/23 01:27:40;;;;;;;4.00;2.08;;;;;;;16.61;100.00;98006.72;5070251;28;20036;-82
2022/05/23 01:30:06;;;;;;;2.22;1.75;;;;;;;16.67;100.00;98002.22;5069810;28;20028;-81
2022/05/23 01:32:32;;;;;;;2.00;1.70;;;;;;;16.66;100.00;98001.41;5072195;28;20040;-83
2022/05/23 01:34:57;;;;;;;2.97;1.90;;;;;;;16.68;100.00;97996.66;5072257;28;20028;-81
2022/05/23 01:37:23;;;;;;;3.53;1.63;;;;;;;16.67;100.00;97991.63;5070644;28;20028;-81
2022/05/23 01:39:51;;;;;;;2.75;2.00;;;;;;;16.64;100.00;97998.22;5072279;28;20029;-81
2022/05/23 01:42:16;;;;;;;2.00;1.80;;;;;;;16.33;100.00;97997.31;5071481;28;20035;-82
2022/05/23 01:44:42;;;;;;;2.47;1.90;;;;;;;16.44;100.00;97993.66;5071843;28;20394;-82
2022/05/23 01:47:13;;;;;;;3.83;2.05;;;;;;;16.47;100.00;97981.75;5072016;28;20032;-82
2022/05/23 01:49:41;;;;;;;2.85;2.08;;;;;;;16.47;100.00;97987.03;5070594;28;20033;-81
2022/05/23 01:52:07;;;;;;;3.22;2.10;;;;;;;16.44;100.00;97984.91;5070870;28;20032;-82
2022/05/23 01:54:35;;;;;;;4.00;1.92;;;;;;;16.56;100.00;97988.94;5070412;28;20115;-83
2022/05/23 01:57:02;;;;;;;2.72;1.92;;;;;;;16.38;100.00;97984.91;5071338;28;20050;-82
2022/05/23 02:02:12;;;;;;;5.10;2.10;;;;;;;16.28;100.00;97984.84;5071687;28;20123;-82
2022/05/23 02:04:39;;;;;;;3.35;1.75;;;;;;;16.30;100.00;97988.03;5071716;28;20070;-82
2022/05/23 02:07:05;;;;;;;4.53;2.25;;;;;;;16.06;100.00;97985.78;5070778;28;20044;-84
2022/05/23 02:09:32;;;;;;;6.57;2.17;;;;;;;15.70;100.00;97967.84;5069586;28;20033;-82
2022/05/23 02:11:57;;;;;;;4.55;2.15;;;;;;;16.11;100.00;97975.25;5068365;28;20107;-83
2022/05/23 02:14:23;;;;;;;4.85;1.92;;;;;;;16.11;100.00;97969.16;5071194;28;20119;-82
2022/05/23 02:16:49;;;;;;;4.03;2.05;;;;;;;16.03;100.00;97973.06;5070280;28;20028;-83
2022/05/23 02:19:15;;;;;;;5.63;2.15;;;;;;;16.03;100.00;97965.13;5070085;28;20035;-82
2022/05/23 02:21:41;;;;;;;3.55;2.08;;;;;;;15.73;100.00;97966.53;5071348;28;20024;-81
2022/05/23 02:24:09;;;;;;;4.32;2.33;;;;;;;15.94;100.00;97969.34;5071161;28;20037;-82
2022/05/23 02:26:35;;;;;;;5.10;2.17;;;;;;;16.01;100.00;97964.59;5069162;28;21828;-82
2022/05/23 02:29:01;;;;;;;3.92;2.10;;;;;;;15.95;100.00;97949.75;5070818;28;20116;-82
2022/05/23 02:31:28;;;;;;;6.63;2.53;;;;;;;15.97;100.00;97958.22;5070594;28;20039;-83
2022/05/23 02:33:54;;;;;;;3.55;2.00;;;;;;;16.02;100.00;97955.59;5070834;28;20040;-82
2022/05/23 02:36:19;;;;;;;7.20;2.40;;;;;;;16.11;100.00;97948.78;5071173;28;20390;-82
2022/05/23 02:38:45;;;;;;;5.45;2.08;;;;;;;16.11;100.00;97948.78;5070898;28;20116;-82
2022/05/23 02:41:11;;;;;;;3.85;2.20;;;;;;;16.07;100.00;97945.03;5070846;28;20087;-83
2022/05/23 02:43:36;;;;;;;5.43;2.10;;;;;;;15.84;100.00;97944.38;5069650;28;20032;-84
2022/05/23 02:46:02;;;;;;;3.35;1.83;;;;;;;15.87;100.00;97936.97;5070838;28;20025;-84
2022/05/23 02:48:27;;;;;;;4.32;2.10;;;;;;;15.73;100.00;97942.72;5070979;28;20422;-83
2022/05/23 02:50:53;;;;;;;8.32;2.17;;;;;;;15.36;100.00;97941.66;5052401;28;20032;-82
2022/05/23 02:53:18;;;;;;;5.43;2.30;;;;;;;15.50;100.00;97928.81;5069869;28;20036;-82
2022/05/23 02:55:44;;;;;;;6.45;2.15;;;;;;;15.40;100.00;97928.75;5070277;28;20027;-83
2022/05/23 02:58:10;;;;;;;3.92;2.00;;;;;;;15.24;100.00;97931.25;5069721;28;20386;-82
2022/05/23 03:00:37;;;;;;;5.05;2.20;;;;;;;15.32;100.00;97926.53;5069657;28;20029;-83
2022/05/23 03:03:04;;;;;;;4.53;2.17;;;;;;;15.48;100.00;97922.97;5069312;28;20491;-84
2022/05/23 03:05:32;;;;;;;7.00;1.92;;;;;;;15.31;100.00;97919.66;5069364;28;20114;-83
2022/05/23 03:07:59;;;;;;;7.55;2.60;;;;;;;15.05;100.00;97917.63;5069467;28;20025;-83
2022/05/23 03:10:25;;;;;;;9.07;2.45;;;;;;;14.96;100.00;97914.66;5068821;28;20028;-83
2022/05/23 03:12:51;;;;;;;4.95;1.80;;;;;;;15.19;100.00;97917.19;5070726;28;20486;-84
2022/05/23 03:15:17;;;;;;;7.30;2.92;;;;;;;15.26;100.00;97899.31;5070552;28;20029;-83
2022/05/23 03:17:42;;;;;;;6.55;2.10;;;;;;;15.20;100.00;97905.56;5070195;28;20107;-83
2022/05/23 03:20:09;;;;;;;7.75;2.38;;;;;;;15.13;100.00;97903.94;5070725;28;20479;-82
2022/05/23 03:28:04;;;;;;;6.28;2.05;;;;;;;15.03;100.00;97903.06;5068715;28;20047;-82
2022/05/23 03:30:30;;;;;;;5.60;2.67;;;;;;;14.97;100.00;97895.13;5069406;28;20482;-82
2022/05/23 03:32:57;;;;;;;3.42;2.42;;;;;;;14.89;100.00;97890.25;5068899;28;20036;-83
2022/05/23 03:35:23;;;;;;;4.70;2.00;;;;;;;14.70;100.00;97893.25;5068870;28;20028;-83
2022/05/23 03:37:49;;;;;;;9.02;2.42;;;;;;;14.75;100.00;97886.47;5069698;28;20463;-85
2022/05/23 03:40:15;;;;;;;4.00;2.10;;;;;;;15.03;100.00;97889.88;5070034;28;20032;-82
2022/05/23 03:42:41;;;;;;;6.57;2.30;;;;;;;14.69;100.00;97889.00;5070198;28;20070;-82
2022/05/23 03:45:08;;;;;;;8.23;2.67;;;;;;;14.61;100.00;97886.00;5070454;28;20123;-82
2022/05/23 03:47:34;;;;;;;7.75;2.65;;;;;;;14.51;100.00;97882.25;5070172;28;20064;-82
2022/05/23 03:50:00;;;;;;;11.48;2.47;;;;;;;14.47;100.00;97880.34;5071099;28;20115;-82
2022/05/23 03:52:26;;;;;;;6.68;2.30;;;;;;;14.29;100.00;97876.97;5073719;28;20032;-83
2022/05/23 03:54:51;;;;;;;8.80;2.08;;;;;;;14.25;100.00;97873.25;5056140;28;21153;-81
2022/05/23 03:57:17;;;;;;;9.88;2.85;;;;;;;14.30;100.00;97870.66;5072715;28;20081;-85
2022/05/23 03:59:45;;;;;;;8.35;2.97;;;;;;;14.02;100.00;97864.56;5074209;28;20126;-83
2022/05/23 04:02:11;;;;;;;6.63;2.38;;;;;;;14.25;100.00;97852.94;5072930;28;20024;-82
2022/05/23 04:04:38;;;;;;;7.85;2.40;;;;;;;13.95;100.00;97864.72;5072259;28;20071;-82
2022/05/23 04:07:05;;;;;;;5.68;2.03;;;;;;;14.08;100.00;97865.41;5071569;28;20035;-82
2022/05/23 04:09:32;;;;;;;4.90;2.30;;;;;;;14.33;100.00;97854.31;5073469;28;20037;-84
2022/05/23 04:11:59;;;;;;;5.22;2.25;;;;;;;14.26;100.00;97859.00;5073447;28;20074;-82
2022/05/23 04:14:26;;;;;;;6.30;2.65;;;;;;;13.83;100.00;97856.94;5072080;28;20028;-82
2022/05/23 04:16:53;;;;;;;8.85;2.47;;;;;;;14.06;100.00;97863.00;5073647;28;20032;-83
2022/05/23 04:19:19;;;;;;;6.90;2.55;;;;;;;14.20;100.00;97854.72;5073547;28;21544;-82
2022/05/23 04:21:46;;;;;;;4.13;1.85;;;;;;;14.08;100.00;97853.00;5072031;28;20037;-84
2022/05/23 04:24:15;;;;;;;6.93;2.10;;;;;;;14.30;100.00;97854.03;5073586;28;20398;-84
2022/05/23 04:26:41;;;;;;;7.03;2.10;;;;;;;14.09;100.00;97851.97;5072425;28;20389;-83
2022/05/23 04:29:07;;;;;;;7.78;2.30;;;;;;;14.21;100.00;97851.81;5072183;28;20036;-83
2022/05/23 04:31:34;;;;;;;2.92;1.98;;;;;;;14.10;100.00;97850.13;5073272;28;20032;-82
2022/05/23 04:36:45;;;;;;;6.03;2.53;;;;;;;13.77;100.00;97852.66;5072841;28;20039;-82
2022/05/23 04:39:10;;;;;;;7.47;2.20;;;;;;;13.84;100.00;97839.25;5072443;28;20167;-83
2022/05/23 04:41:37;;;;;;;5.55;2.53;;;;;;;13.61;100.00;97837.66;5072107;28;20025;-82
2022/05/23 04:44:03;;;;;;;8.00;2.38;;;;;;;13.94;100.00;97835.94;5073382;28;20390;-84
2022/05/23 04:46:28;;;;;;;5.30;2.17;;;;;;;14.17;100.00;97834.13;5073512;28;20029;-83
2022/05/23 04:51:39;;;;;;;7.90;2.53;;;;;;;14.01;100.00;97831.31;5071891;28;20040;-83
2022/05/23 04:54:06;;;;;;;13.95;3.20;;;;;;;14.08;100.00;97826.63;5073317;28;20106;-83
2022/05/23 04:56:32;;;;;;;8.38;2.78;;;;;;;14.12;100.00;97826.94;5071773;28;20036;-84
2022/05/23 04:58:58;;;;;;;6.13;2.60;;;;;;;14.16;100.00;97816.69;5071866;28;20025;-84
2022/05/23 05:01:24;;;;;;;6.03;2.28;;;;;;;14.22;100.00;97827.03;5071901;28;20035;-85
2022/05/23 05:03:52;;;;;;;8.95;2.53;;;;;;;14.21;100.00;97825.44;5069946;28;20051;-84
2022/05/23 05:06:22;;;;;;;7.35;2.53;;;;;;;14.33;100.00;97827.16;5071353;28;20059;-85
2022/05/23 05:08:48;;;;;;;11.93;2.45;;;;;;;14.32;100.00;97831.59;5072776;28;20101;-85
2022/05/23 05:11:14;;;;;;;11.77;3.10;;;;;;;14.02;100.00;97817.06;5072533;28;20078;-84
2022/05/23 05:13:40;;;;;;;9.98;2.97;;;;;;;14.03;100.00;97816.00;5072730;28;20096;-85
2022/05/23 05:16:06;;;;;;;9.57;2.45;;;;;;;14.12;100.00;97805.81;5071224;28;20116;-85
2022/05/23 05:18:34;;;;;;;7.72;2.55;;;;;;;14.04;100.00;97812.34;5072638;28;20056;-84
2022/05/23 05:21:17;;;;;;;4.97;2.50;;;;;;;14.40;100.00;97810.06;5068187;28;20025;-86
2022/05/23 05:23:43;;;;;;;9.57;3.65;;;;;;;14.17;100.00;97813.78;5072471;28;20462;-86
2022/05/23 05:26:09;;;;;;;7.72;2.50;;;;;;;13.92;100.00;97811.66;5069583;28;20043;-86
2022/05/23 05:28:35;;;;;;;7.53;2.65;;;;;;;14.24;100.00;97814.38;5072160;28;20044;-85
2022/05/23 05:31:30;;;;;;;11.25;3.55;;;;;;;14.18;100.00;97814.59;5070080;28;20052;-85
2022/05/23 05:34:04;;;;;;;10.52;3.00;;;;;;;14.46;100.00;97807.47;5062169;28;20871;-85
2022/05/23 05:36:36;;;;;;;10.15;2.92;;;;;;;14.80;100.00;97807.25;5071412;28;20059;-85
2022/05/23 05:39:04;;;;;;;11.57;3.10;;;;;;;14.88;100.00;97822.63;5071173;28;20478;-85
2022/05/23 05:41:41;;;;;;;9.00;2.75;;;;;;;14.82;100.00;97823.66;5071267;28;20025;-85
2022/05/23 05:44:12;;;;;;;6.93;2.33;;;;;;;15.11;100.00;97812.75;5071975;28;20040;-85
2022/05/23 05:46:41;;;;;;;7.22;2.30;;;;;;;15.36;100.00;97811.31;5071976;28;20497;-85
2022/05/23 05:49:12;;;;;;;9.25;3.03;;;;;;;14.69;100.00;97809.78;5069063;28;20037;-82
2022/05/23 05:51:43;;;;;;;5.97;2.45;;;;;;;14.95;100.00;97823.22;5070998;28;20032;-81
2022/05/23 05:54:12;;;;;;;5.85;2.70;;;;;;;15.02;100.00;97803.72;5069438;28;20036;-81
2022/05/23 05:56:39;;;;;;;12.18;2.78;;;;;;;15.28;100.00;97799.38;5070387;28;20029;-81
2022/05/23 05:59:06;;;;;;;6.07;2.72;;;;;;;15.76;100.00;97809.94;5070498;28;20051;-85
2022/05/23 06:01:31;;;;;;;5.18;2.55;;;;;;;16.05;100.00;97801.56;5068954;28;20048;-81
2022/05/23 06:03:57;;;;;;;6.25;2.78;;;;;;;15.41;100.00;97803.41;5069631;28;20386;-81
2022/05/23 06:11:51;;;;;;;8.30;2.90;;;;;;;15.79;100.00;97814.69;5069643;28;20458;-81
2022/05/23 06:14:17;;;;;;;9.15;2.47;;;;;;;16.29;100.00;97793.16;5069358;28;20040;-82
2022/05/23 06:16:42;;;;;;;10.95;2.75;;;;;;;15.84;100.00;97808.63;5066713;28;20032;-80
2022/05/23 06:19:08;;;;;;;9.73;2.90;;;;;;;15.58;100.00;97797.94;5067694;28;20017;-80
2022/05/23 06:21:34;;;;;;;6.03;2.47;;;;;;;15.96;100.00;97792.56;5070083;28;20459;-80
2022/05/23 06:23:59;;;;;;;7.22;2.90;;;;;;;15.92;100.00;97797.56;5069385;28;20028;-81
2022/05/23 06:26:26;;;;;;;11.25;3.28;;;;;;;15.87;100.00;97796.72;5067086;28;20665;-81
2022/05/23 06:28:53;;;;;;;8.07;2.75;;;;;;;15.49;100.00;97800.28;5067648;28;20119;-81
2022/05/23 06:31:20;;;;;;;11.23;2.78;;;;;;;15.67;100.00;97795.59;5067888;28;20032;-81
2022/05/23 06:33:47;;;;;;;5.90;2.42;;;;;;;15.65;100.00;97795.06;5069069;28;20490;-81
2022/05/23 06:36:16;;;;;;;13.32;3.50;;;;;;;15.64;100.00;97801.41;5067147;28;20040;-81
2022/05/23 06:38:42;;;;;;;8.52;2.90;;;;;;;15.92;100.00;97802.88;5065867;28;20425;-82
2022/05/23 06:41:09;;;;;;;12.57;3.10;;;;;;;15.71;100.00;97797.47;5070780;28;20046;-82
2022/05/23 06:43:38;;;;;;;6.88;2.95;;;;;;;16.12;100.00;97786.25;5066865;28;20052;-82
2022/05/23 06:46:04;;;;;;;7.88;2.88;;;;;;;15.87;100.00;97786.13;5067260;28;20028;-83
2022/05/23 06:48:31;;;;;;;9.10;3.40;;;;;;;15.76;100.00;97788.75;5099563;28;20513;-82
2022/05/23 06:50:56;;;;;;;8.02;3.03;;;;;;;15.56;100.00;97782.34;5067406;28;20063;-83
2022/05/23 06:53:23;;;;;;;6.82;3.03;;;;;;;15.81;100.00;97780.84;5067328;28;20064;-82
2022/05/23 06:55:50;;;;;;;10.25;3.85;;;;;;;16.42;100.00;97781.25;5067037;28;20082;-83
2022/05/23 06:58:16;;;;;;;8.15;3.38;;;;;;;16.52;100.00;97772.53;5068639;28;20591;-84
2022/05/23 07:00:43;;;;;;;12.55;3.38;;;;;;;16.48;100.00;97768.81;5067809;28;20542;-82
2022/05/23 07:03:09;;;;;;;9.38;4.70;;;;;;;16.21;100.00;97761.91;5069271;28;20028;-81
2022/05/23 07:13:55;;;;;;;10.30;5.30;;;;;;;16.21;100.00;97757.41;5056108;28;20036;-80
2022/05/23 07:16:22;;;;;;;13.32;6.30;;;;;;;16.89;100.00;97754.75;5056379;28;20474;-82
2022/05/23 07:18:48;;;;;;;17.25;7.70;;;;;;;16.82;100.00;97755.00;5067677;28;20036;-81
2022/05/23 07:21:14;;;;;;;14.80;9.98;;;;;;;16.73;100.00;97761.94;5065286;28;20553;-82
2022/05/23 07:23:43;;;;;;;14.88;10.13;;;;;;;16.55;100.00;97761.41;5069102;28;20151;-82
2022/05/23 07:26:16;;;;;;;13.98;6.38;;;;;;;16.51;100.00;97757.69;5065705;28;20039;-82
2022/05/23 07:28:43;;;;;;;11.73;5.90;;;;;;;16.65;100.00;97753.44;5065640;28;20089;-82
2022/05/23 07:31:09;;;;;;;10.50;5.13;;;;;;;17.23;100.00;97749.66;5063852;28;20036;-83
2022/05/23 07:33:35;;;;;;;13.18;5.00;;;;;;;16.92;100.00;97741.75;5068780;28;20040;-83
2022/05/23 07:36:01;;;;;;;11.90;4.88;;;;;;;16.86;100.00;97745.47;5070210;28;20131;-83
2022/05/23 07:38:28;;;;;;;7.40;4.20;;;;;;;16.70;100.00;97747.34;5069837;28;20028;-83
2022/05/23 07:40:55;;;;;;;7.57;5.00;;;;;;;17.08;99.80;97736.44;5051946;28;20043;-83
2022/05/23 07:43:21;;;;;;;12.93;5.43;;;;;;;17.38;99.72;97740.06;5070070;28;20055;-83
2022/05/23 07:45:50;;;;;;;12.48;3.85;;;;;;;17.47;97.78;97733.13;5069778;28;20056;-83
2022/05/23 07:48:16;;;;;;;10.38;5.03;;;;;;;17.34;97.25;97728.41;5067203;28;20402;-83
2022/05/23 07:50:45;;;;;;;9.45;4.80;;;;;;;16.93;99.60;97730.09;5070021;28;20029;-83
2022/05/23 08:01:27;;;;;;;12.18;4.35;;;;;;;17.93;97.33;97726.00;5069937;28;20029;-83
2022/05/23 08:03:54;;;;;;;7.90;3.45;;;;;;;17.62;98.89;97719.00;5068837;28;20036;-83
2022/05/23 08:06:20;;;;;;;6.90;3.78;;;;;;;18.63;96.17;97709.00;5069875;28;20437;-83
2022/05/23 08:08:46;;;;;;;6.60;3.65;;;;;;;18.90;92.48;97715.69;5069699;28;20115;-83
2022/05/23 08:11:13;;;;;;;8.10;3.88;;;;;;;18.81;94.98;97717.34;5070053;28;20024;-81
2022/05/23 08:13:41;;;;;;;5.38;3.70;;;;;;;19.20;92.22;97718.31;5068506;28;20397;-81
2022/05/23 08:16:07;;;;;;;5.65;3.67;;;;;;;18.18;94.45;97722.44;5051864;28;20043;-81
2022/05/23 08:18:33;;;;;;;7.03;3.83;;;;;;;18.40;92.92;97721.19;5069815;28;20462;-81
2022/05/23 08:21:00;;;;;;;6.07;4.20;;;;;;;18.11;92.40;97722.72;5068444;28;20035;-83
2022/05/23 08:23:26;;;;;;;5.63;4.07;;;;;;;18.46;92.41;97709.44;5069826;28;20070;-81
2022/05/23 08:25:52;;;;;;;8.43;4.07;;;;;;;18.75;91.77;97702.53;5068442;28;20039;-81
2022/05/23 08:28:18;;;;;;;5.72;3.88;;;;;;;19.23;91.38;97710.53;5067455;28;20103;-81
2022/05/23 08:30:46;;;;;;;9.40;4.68;;;;;;;19.93;91.78;97707.56;5069773;28;20032;-81
2022/05/23 08:33:12;;;;;;;10.38;4.63;;;;;;;20.19;89.63;97707.16;5069446;28;20032;-81
2022/05/23 08:35:39;;;;;;;4.85;4.05;;;;;;;20.21;89.01;97700.47;5070994;28;20021;-81
2022/05/23 08:38:05;;;;;;;5.85;4.47;;;;;;;20.16;87.01;97702.44;5073427;28;20091;-81
2022/05/23 08:40:40;;;;;;;5.75;4.65;;;;;;;19.63;88.40;97701.53;5055248;28;20052;-81
2022/05/23 08:43:07;;;;;;;7.43;5.30;;;;;;;19.57;89.32;97705.38;5072915;28;20031;-81
2022/05/23 08:45:42;;;;;;;7.88;5.15;;;;;;;18.76;89.08;97704.13;5071644;28;20025;-83
2022/05/23 08:48:28;;;;;;;6.70;5.13;;;;;;;18.62;90.26;97702.13;5071849;28;20039;-83
2022/05/23 08:51:11;;;;;;;9.38;5.45;;;;;;;19.31;90.00;97703.03;5075820;28;20074;-82
2022/05/23 08:54:11;;;;;;;9.45;5.60;;;;;;;19.51;86.88;97705.44;5070010;28;20032;-81
2022/05/23 08:56:47;;;;;;;8.65;5.15;;;;;;;19.15;87.30;97700.56;5070828;28;20025;-81
2022/05/23 08:59:25;;;;;;;7.65;5.30;;;;;;;18.63;87.94;97697.59;5070972;28;20017;-81
2022/05/23 09:02:18;;;;;;;10.30;5.60;;;;;;;18.97;88.66;97708.16;5072566;28;20024;-81
2022/05/23 09:04:53;;;;;;;8.57;5.32;;;;;;;19.57;87.22;97708.03;5070611;28;20036;-81
2022/05/23 09:07:38;;;;;;;5.78;5.28;;;;;;;19.31;86.76;97703.81;5071671;28;20036;-80
2022/05/23 09:10:11;;;;;;;7.68;5.25;;;;;;;19.08;87.09;97710.75;5070291;28;20032;-81
2022/05/23 09:12:39;;;;;;;10.95;5.10;;;;;;;19.53;86.57;97708.59;5071117;28;20031;-82
2022/05/23 09:15:06;;;;;;;7.03;4.90;;;;;;;19.65;85.92;97700.19;5051040;28;20436;-81
2022/05/23 09:17:39;;;;;;;8.77;4.93;;;;;;;19.47;86.14;97699.09;5069910;28;20028;-82
2022/05/23 09:20:21;;;;;;;5.95;4.50;;;;;;;19.70;85.03;97699.34;5071383;28;20043;-82
2022/05/23 09:22:58;;;;;;;7.65;4.95;;;;;;;19.36;85.56;97692.31;5071787;28;20032;-82
2022/05/23 09:25:25;;;;;;;7.78;5.50;;;;;;;19.84;85.34;97692.19;5069791;28;20024;-82
2022/05/23 09:28:21;;;;;;;9.25;5.00;;;;;;;20.90;83.72;97691.06;5071620;28;20127;-82
2022/05/23 09:30:59;;;;;;;9.52;5.15;;;;;;;20.92;81.29;97691.56;5067325;28;20044;-82
2022/05/23 09:33:30;;;;;;;6.75;4.57;;;;;;;20.09;81.15;97687.63;5068799;28;21683;-82
2022/05/23 09:36:20;;;;;;;7.47;4.50;;;;;;;20.22;82.41;97683.41;5067470;28;20091;-82
2022/05/23 09:38:52;;;;;;;7.63;4.95;;;;;;;19.94;82.19;97677.19;5069072;28;20052;-82
2022/05/23 09:47:44;;;;;;;4.93;4.20;;;;;;;20.93;81.25;97681.66;5071309;28;20028;-82
2022/05/23 09:49:51;;;;;;;9.68;4.25;;;;;;;21.71;77.25;97670.22;5068392;28;20032;-81
2022/05/23 09:52:32;;;;;;;7.82;4.25;;;;;;;20.42;78.81;97662.84;5067678;28;20033;-82
2022/05/23 09:55:10;;;;;;;6.53;3.95;;;;;;;20.55;78.39;97662.06;5071043;28;20111;-81
2022/05/23 09:57:57;;;;;;;6.70;4.15;;;;;;;20.41;76.73;97655.91;5071333;28;20028;-82
2022/05/23 10:00:23;;;;;;;8.90;4.05;;;;;;;20.45;75.86;97656.91;5070254;28;20120;-82
2022/05/23 10:02:50;;;;;;;5.03;3.90;;;;;;;20.14;76.28;97643.31;5070779;28;20112;-82
2022/05/23 10:05:30;;;;;;;7.07;4.20;;;;;;;20.34;75.26;97650.16;5069393;28;20036;-82
2022/05/23 10:08:28;;;;;;;6.75;3.70;;;;;;;20.03;74.30;97640.03;5069714;28;20530;-82
2022/05/23 10:10:58;;;;;;;3.40;3.10;;;;;;;20.51;73.78;97639.72;5061292;28;20492;-82
2022/05/23 10:13:38;;;;;;;3.60;3.30;;;;;;;20.12;75.24;97635.63;5070002;28;20025;-82
2022/05/23 10:16:09;;;;;;;9.68;3.47;;;;;;;20.15;76.09;97636.91;5069391;28;20036;-82
2022/05/23 10:18:55;;;;;;;11.77;3.60;;;;;;;19.72;75.36;97629.81;5071038;28;20033;-82
2022/05/23 10:21:41;;;;;;;5.88;3.70;;;;;;;19.61;77.27;97630.00;5069982;28;20036;-82
2022/05/23 10:24:11;;;;;;;6.35;3.80;;;;;;;19.63;76.31;97617.19;5069239;28;20090;-83
2022/05/23 10:26:53;;;;;;;6.38;3.70;;;;;;;20.84;75.36;97620.25;5069269;28;20028;-82
2022/05/23 10:29:42;;;;;;;7.40;3.70;;;;;;;20.90;72.69;97618.25;5069928;28;20036;-81
2022/05/23 10:32:12;;;;;;;6.40;3.70;;;;;;;20.83;73.75;97616.78;5058366;28;20110;-82
2022/05/23 10:34:42;;;;;;;5.00;3.50;;;;;;;20.33;73.15;97613.94;5069582;28;20500;-81
2022/05/23 10:37:12;;;;;;;4.88;3.70;;;;;;;20.64;74.35;97606.19;5069849;28;20386;-82
2022/05/23 10:42:44;;;;;;;7.05;3.92;;;;;;;20.71;71.82;97599.69;5072818;28;20437;-82
2022/05/23 10:45:40;;;;;;;5.40;3.70;;;;;;;20.77;71.86;97587.81;5071808;28;20466;-82
2022/05/23 10:48:14;;;;;;;7.00;3.83;;;;;;;21.76;70.37;97589.97;5071913;28;20542;-82
2022/05/23 10:50:54;;;;;;;6.40;3.85;;;;;;;22.20;68.78;97586.78;5098532;28;20470;-82
2022/05/23 10:53:32;;;;;;;7.22;4.40;;;;;;;22.27;68.58;97587.13;5067126;28;20050;-82
2022/05/23 10:56:14;;;;;;;7.20;4.03;;;;;;;22.94;66.75;97576.53;5054815;28;20059;-82
2022/05/23 10:58:56;;;;;;;5.75;4.13;;;;;;;22.30;66.93;97570.47;5069168;28;20039;-83
2022/05/23 11:01:45;;;;;;;4.78;4.20;;;;;;;22.45;68.14;97568.50;5053042;28;20111;-81
2022/05/23 11:04:24;;;;;;;5.72;4.00;;;;;;;22.87;66.05;97585.00;5068167;28;20482;-82
2022/05/23 11:06:49;;;;;;;6.93;4.03;;;;;;;22.24;65.29;97580.50;5068433;28;20028;-81
2022/05/23 11:09:30;;;;;;;6.05;4.10;;;;;;;22.91;66.00;97567.22;5069620;28;20032;-81
2022/05/23 11:12:26;;;;;;;6.40;4.63;;;;;;;22.83;64.87;97565.34;5070146;28;20389;-80
2022/05/23 11:15:07;;;;;;;8.85;5.22;;;;;;;21.93;64.31;97570.63;5070038;28;20028;-80
2022/05/23 11:17:54;;;;;;;6.20;5.70;;;;;;;22.51;66.72;97567.28;5068731;28;20545;-80
2022/05/23 11:20:34;;;;;;;8.40;6.38;;;;;;;21.97;64.41;97560.09;5069962;28;20497;-82
2022/05/23 11:23:04;;;;;;;10.25;7.55;;;;;;;21.06;65.29;97560.06;5069425;28;20101;-82
2022/05/23 11:25:34;;;;;;;9.57;7.57;;;;;;;21.42;67.10;97569.94;5069910;28;20040;-83
2022/05/23 11:33:47;;;;;;;7.78;4.53;;;;;;;20.55;71.84;97575.97;5069907;28;20359;-83
2022/05/23 11:36:44;;;;;;;6.97;4.47;;;;;;;20.68;72.19;97577.06;5068331;28;20040;-81
2022/05/23 11:39:47;;;;;;;7.00;4.30;;;;;;;21.26;71.60;97575.63;5069685;28;20032;-81
2022/05/23 11:42:14;;;;;;;5.20;4.05;;;;;;;21.61;71.12;97566.28;5068330;28;20387;-81
2022/05/23 11:44:48;;;;;;;9.27;4.88;;;;;;;21.99;70.44;97559.81;5068680;28;20097;-81
2022/05/23 11:47:21;;;;;;;;;;;;;;;21.99;70.37;97563.25;5068656;28;20043;-81
2022/05/23 11:49:48;;;;;;;11.15;4.70;;;;;;;22.72;68.97;97556.81;5069866;28;19923;-81
2022/05/23 11:52:23;;;;;;;8.25;4.70;;;;;;;23.22;67.86;97566.31;5069869;28;20032;-81
2022/05/23 11:54:54;;;;;;;12.18;5.18;;;;;;;22.96;67.21;97561.72;5069033;28;20035;-81
2022/05/23 11:57:30;;;;;;;7.88;5.38;;;;;;;22.33;67.28;97556.50;5068500;28;20536;-81
2022/05/23 11:59:56;;;;;;;7.43;4.88;;;;;;;23.29;67.66;97573.13;5069945;28;20033;-80
2022/05/23 12:02:27;;;;;;;7.00;5.40;;;;;;;22.70;67.43;97561.69;5069811;28;20029;-81
2022/05/23 12:04:54;;;;;;;7.10;4.93;;;;;;;22.95;66.16;97557.47;5068380;28;20036;-81
2022/05/23 12:07:36;;;;;;;6.82;4.65;;;;;;;22.94;67.88;97561.25;5069828;28;20032;-81
2022/05/23 12:10:21;;;;;;;6.82;5.18;;;;;;;22.96;64.72;97564.41;5068733;28;20038;-81
2022/05/23 12:12:51;;;;;;;5.80;5.18;;;;;;;22.68;64.77;97558.50;5073986;28;20063;-80
2022/05/23 12:15:44;;;;;;;5.97;5.28;;;;;;;23.14;66.12;97567.09;5072531;28;20028;-81
2022/05/23 12:18:28;;;;;;;10.50;5.32;;;;;;;22.54;65.82;97558.63;5073820;28;20050;-80
2022/05/23 12:21:27;;;;;;;5.32;4.82;;;;;;;22.06;66.83;97566.28;5072666;28;20392;-80
2022/05/23 12:24:21;;;;;;;5.00;4.63;;;;;;;21.38;68.08;97552.94;5073099;28;20081;-81
2022/05/23 12:26:51;;;;;;;5.07;4.57;;;;;;;21.90;67.18;97563.19;5072316;28;20028;-80
2022/05/23 12:29:30;;;;;;;5.47;4.28;;;;;;;21.63;65.47;97553.44;5073593;28;20046;-81
2022/05/23 12:32:18;;;;;;;6.88;4.60;;;;;;;22.26;66.10;97553.50;5072041;28;20466;-81
2022/05/23 12:34:47;;;;;;;5.88;4.20;;;;;;;22.43;65.16;97555.44;5072163;28;20067;-80
2022/05/23 12:37:21;;;;;;;7.78;4.32;;;;;;;21.87;65.35;97547.78;5073002;28;20031;-80
2022/05/23 12:40:12;;;;;;;5.05;3.63;;;;;;;21.23;66.37;97552.22;5071073;28;20024;-80